Time,TemperatureF,DewpointF,PressureIn,WindDirection,WindDirectionDegrees,WindSpeedMPH,WindSpeedGustMPH,Humidity,HourlyPrecipIn,Conditions,Clouds,dailyrainin,SoftwareType,DateUTC
2013-01-23 00:01:00,23.5,7.6,30.30,WNW,303,0.0,0.0,50,0.00,,,0.00,WeatherDisplay:10.37,2013-01-23 05:01:00,
2013-01-23 00:02:00,23.5,7.1,30.30,WNW,302,0.0,0.0,49,0.00,,,0.00,WeatherDisplay:10.37,2013-01-23 05:02:00,
2013-01-23 00:03:00,23.4,5.2,30.30,WNW,303,0.0,0.0,45,0.00,,,0.00,WeatherDisplay:10.37,2013-01-23 05:03:00,
2013-01-23 00:08:00,23.4,4.2,30.30,WNW,303,0.0,0.0,43,0.00,,,0.00,WeatherDisplay:10.37,2013-01-23 05:08:00,
2013-01-23 00:13:00,23.4,5.6,30.30,NW,304,0.0,0.0,46,0.00,,,0.00,WeatherDisplay:10.37,2013-01-23 05:13:00,
2013-01-23 00:18:00,23.4,5.6,30.30,NW,304,0.0,0.0,46,0.00,,,0.00,WeatherDisplay:10.37,2013-01-23 05:18:00,
2013-01-23 00:23:00,23.5,5.2,30.30,NW,304,0.0,0.0,45,0.00,,,0.00,WeatherDisplay:10.37,2013-01-23 05:23:00,
2013-01-23 00:28:00,23.5,4.8,30.30,NW,304,0.0,0.0,44,0.00,,,0.00,WeatherDisplay:10.37,2013-01-23 05:28:00,
2013-01-23 00:33:00,23.8,5.0,30.30,West,262,0.7,3.5,44,0.00,,,0.00,WeatherDisplay:10.37,2013-01-23 05:33:00,
2013-01-23 00:38:00,23.9,4.6,30.31,West,262,0.3,2.3,43,0.00,,,0.00,WeatherDisplay:10.37,2013-01-23 05:38:00,
2013-01-23 00:43:00,24.0,4.7,30.31,West,262,0.0,0.0,43,0.00,,,0.00,WeatherDisplay:10.37,2013-01-23 05:43:00,
2013-01-23 00:48:00,24.1,4.8,30.31,West,267,0.1,0.0,43,0.00,,,0.00,WeatherDisplay:10.37,2013-01-23 05:48:00,
2013-01-23 00:53:00,24.1,5.3,30.31,West,267,0.0,0.0,44,0.00,,,0.00,WeatherDisplay:10.37,2013-01-23 05:53:00,
2013-01-23 00:58:00,24.1,5.3,30.31,West,267,0.0,1.1,44,0.00,,,0.00,WeatherDisplay:10.37,2013-01-23 05:58:00,
2013-01-23 01:03:00,24.1,5.3,30.31,West,267,0.0,0.0,44,0.00,,,0.00,WeatherDisplay:10.37,2013-01-23 06:03:00,
2013-01-23 01:08:00,24.2,5.9,30.31,West,267,2.0,3.5,45,0.00,,,0.00,WeatherDisplay:10.37,2013-01-23 06:08:00,
2013-01-23 01:13:00,24.3,6.5,30.31,West,269,0.0,0.0,46,0.00,,,0.00,WeatherDisplay:10.37,2013-01-23 06:13:00,
2013-01-23 01:18:00,24.4,4.6,30.31,West,273,1.8,3.5,42,0.00,,,0.00,WeatherDisplay:10.37,2013-01-23 06:18:00,
2013-01-23 01:23:00,24.6,6.3,30.32,West,273,0.0,0.0,45,0.00,,,0.00,WeatherDisplay:10.37,2013-01-23 06:23:00,
2013-01-23 01:28:00,24.5,6.6,30.32,WSW,252,0.7,3.0,46,0.00,,,0.00,WeatherDisplay:10.37,2013-01-23 06:28:00,
2013-01-23 01:33:00,24.5,6.6,30.32,WSW,252,0.0,0.0,46,0.00,,,0.00,WeatherDisplay:10.37,2013-01-23 06:33:00,
2013-01-23 01:38:00,24.5,8.0,30.32,WSW,252,0.0,0.0,49,0.00,,,0.00,WeatherDisplay:10.37,2013-01-23 06:38:00,
2013-01-23 01:43:00,24.5,6.6,30.32,WSW,252,0.1,0.0,46,0.00,,,0.00,WeatherDisplay:10.37,2013-01-23 06:43:00,
2013-01-23 01:48:00,24.7,6.8,30.32,WSW,254,0.0,0.0,46,0.00,,,0.00,WeatherDisplay:10.37,2013-01-23 06:48:00,
2013-01-23 01:53:00,24.7,7.8,30.32,WSW,254,0.0,0.0,48,0.00,,,0.00,WeatherDisplay:10.37,2013-01-23 06:53:00,
2013-01-23 01:59:00,24.7,6.8,30.32,WSW,254,0.0,0.0,46,0.00,,,0.00,WeatherDisplay:10.37,2013-01-23 06:59:00,
2013-01-23 02:04:00,24.7,6.8,30.32,WSW,254,0.0,0.0,46,0.00,,,0.00,WeatherDisplay:10.37,2013-01-23 07:04:00,
2013-01-23 02:09:00,24.7,7.3,30.32,WSW,254,0.0,0.0,47,0.00,,,0.00,WeatherDisplay:10.37,2013-01-23 07:09:00,
2013-01-23 02:14:00,24.7,7.3,30.33,WSW,256,2.0,4.0,47,0.00,,,0.00,WeatherDisplay:10.37,2013-01-23 07:14:00,
2013-01-23 02:19:00,24.9,7.0,30.33,WSW,256,0.0,0.0,46,0.00,,,0.00,WeatherDisplay:10.37,2013-01-23 07:19:00,
2013-01-23 02:24:00,24.9,6.5,30.33,WSW,256,0.2,1.1,45,0.00,,,0.00,WeatherDisplay:10.37,2013-01-23 07:24:00,
2013-01-23 02:29:00,24.9,7.0,30.32,WSW,256,0.0,0.0,46,0.00,,,0.00,WeatherDisplay:10.37,2013-01-23 07:29:00,
2013-01-23 02:34:00,24.9,7.0,30.33,WSW,256,0.0,0.0,46,0.00,,,0.00,WeatherDisplay:10.37,2013-01-23 07:34:00,
2013-01-23 02:39:00,24.8,6.9,30.33,West,260,0.0,0.0,46,0.00,,,0.00,WeatherDisplay:10.37,2013-01-23 07:39:00,
2013-01-23 02:44:00,24.7,7.3,30.33,West,260,0.2,1.1,47,0.00,,,0.00,WeatherDisplay:10.37,2013-01-23 07:44:00,
2013-01-23 02:49:00,24.5,7.1,30.33,West,261,0.0,0.0,47,0.00,,,0.00,WeatherDisplay:10.37,2013-01-23 07:49:00,
2013-01-23 02:54:00,24.5,6.6,30.33,West,261,0.0,0.0,46,0.00,,,0.00,WeatherDisplay:10.37,2013-01-23 07:54:00,
2013-01-23 02:59:00,24.3,7.4,30.33,West,261,0.5,1.1,48,0.00,,,0.00,WeatherDisplay:10.37,2013-01-23 07:59:00,
2013-01-23 03:04:00,24.2,7.8,30.33,West,261,0.4,2.0,49,0.00,,,0.00,WeatherDisplay:10.37,2013-01-23 08:04:00,
2013-01-23 03:09:00,24.3,7.4,30.33,West,269,1.5,2.3,48,0.00,,,0.00,WeatherDisplay:10.37,2013-01-23 08:09:00,
2013-01-23 03:14:00,24.4,7.0,30.34,WNW,296,0.0,0.0,47,0.00,,,0.00,WeatherDisplay:10.37,2013-01-23 08:14:00,
2013-01-23 03:19:00,24.5,6.6,30.34,WNW,293,0.9,5.0,46,0.00,,,0.00,WeatherDisplay:10.37,2013-01-23 08:19:00,
2013-01-23 03:24:00,24.6,6.7,30.34,WNW,296,3.4,4.6,46,0.00,,,0.00,WeatherDisplay:10.37,2013-01-23 08:24:00,
2013-01-23 03:29:00,24.6,6.7,30.34,WNW,296,0.0,0.0,46,0.00,,,0.00,WeatherDisplay:10.37,2013-01-23 08:29:00,
2013-01-23 03:34:00,24.5,6.6,30.34,WNW,287,1.0,3.5,46,0.00,,,0.00,WeatherDisplay:10.37,2013-01-23 08:34:00,
2013-01-23 03:39:00,24.2,6.4,30.34,West,273,3.0,4.6,46,0.00,,,0.00,WeatherDisplay:10.37,2013-01-23 08:39:00,
2013-01-23 03:44:00,24.0,7.1,30.33,West,274,0.0,0.0,48,0.00,,,0.00,WeatherDisplay:10.37,2013-01-23 08:44:00,
2013-01-23 03:49:00,23.6,7.2,30.33,West,274,0.0,0.0,49,0.00,,,0.00,WeatherDisplay:10.37,2013-01-23 08:49:00,
2013-01-23 03:54:00,23.3,7.4,30.33,West,271,0.0,0.0,50,0.00,,,0.00,WeatherDisplay:10.37,2013-01-23 08:54:00,
2013-01-23 03:59:00,23.0,7.5,30.33,West,271,0.0,0.0,51,0.00,,,0.00,WeatherDisplay:10.37,2013-01-23 08:59:00,
2013-01-23 04:04:00,22.7,7.3,30.33,West,269,0.0,0.0,51,0.00,,,0.00,WeatherDisplay:10.37,2013-01-23 09:04:00,
2013-01-23 04:09:00,22.4,7.8,30.33,West,269,0.0,0.0,53,0.00,,,0.00,WeatherDisplay:10.37,2013-01-23 09:09:00,
2013-01-23 04:14:00,22.3,7.7,30.33,West,269,0.0,0.0,53,0.00,,,0.00,WeatherDisplay:10.37,2013-01-23 09:14:00,
2013-01-23 04:19:00,22.2,7.6,30.33,West,269,0.0,0.0,53,0.00,,,0.00,WeatherDisplay:10.37,2013-01-23 09:19:00,
2013-01-23 04:24:00,22.2,7.6,30.33,West,270,0.2,0.0,53,0.00,,,0.00,WeatherDisplay:10.37,2013-01-23 09:24:00,
2013-01-23 04:29:00,22.7,8.1,30.33,West,270,0.0,0.0,53,0.00,,,0.00,WeatherDisplay:10.37,2013-01-23 09:29:00,
2013-01-23 04:34:00,22.9,8.3,30.33,West,270,0.0,0.0,53,0.00,,,0.00,WeatherDisplay:10.37,2013-01-23 09:34:00,
2013-01-23 04:39:00,22.8,8.2,30.33,West,270,0.0,0.0,53,0.00,,,0.00,WeatherDisplay:10.37,2013-01-23 09:39:00,
2013-01-23 04:44:00,22.7,8.5,30.33,West,270,0.0,0.0,54,0.00,,,0.00,WeatherDisplay:10.37,2013-01-23 09:44:00,
2013-01-23 04:49:00,22.7,8.1,30.34,West,270,0.0,0.0,53,0.00,,,0.00,WeatherDisplay:10.37,2013-01-23 09:49:00,
2013-01-23 04:54:00,22.7,8.5,30.34,West,270,0.0,0.0,54,0.00,,,0.00,WeatherDisplay:10.37,2013-01-23 09:54:00,
2013-01-23 04:59:00,22.8,8.6,30.34,West,270,0.0,0.0,54,0.00,,,0.00,WeatherDisplay:10.37,2013-01-23 09:59:00,
2013-01-23 05:04:00,22.8,9.4,30.34,West,270,0.0,0.0,56,0.00,,,0.00,WeatherDisplay:10.37,2013-01-23 10:04:00,
2013-01-23 05:09:00,23.0,9.2,30.34,West,270,0.0,0.0,55,0.00,,,0.00,WeatherDisplay:10.37,2013-01-23 10:09:00,
2013-01-23 05:14:00,23.2,8.6,30.34,West,270,0.0,0.0,53,0.00,,,0.00,WeatherDisplay:10.37,2013-01-23 10:14:00,
2013-01-23 05:19:00,23.5,8.4,30.33,West,270,0.0,0.0,52,0.00,,,0.00,WeatherDisplay:10.37,2013-01-23 10:19:00,
2013-01-23 05:24:00,23.9,7.9,30.33,West,271,2.4,3.5,50,0.00,,,0.00,WeatherDisplay:10.37,2013-01-23 10:24:00,
2013-01-23 05:29:00,24.2,8.2,30.33,West,271,0.7,2.0,50,0.00,,,0.00,WeatherDisplay:10.37,2013-01-23 10:29:00,
2013-01-23 05:34:00,24.4,7.9,30.34,West,271,0.0,0.0,49,0.00,,,0.00,WeatherDisplay:10.37,2013-01-23 10:34:00,
2013-01-23 05:40:00,24.5,8.0,30.34,WNW,288,0.4,2.3,49,0.00,,,0.00,WeatherDisplay:10.37,2013-01-23 10:40:00,
2013-01-23 05:45:00,24.6,9.0,30.34,WNW,288,0.0,0.0,51,0.00,,,0.00,WeatherDisplay:10.37,2013-01-23 10:45:00,
2013-01-23 05:50:00,24.6,8.6,30.34,WNW,287,0.0,0.0,50,0.00,,,0.00,WeatherDisplay:10.37,2013-01-23 10:50:00,
2013-01-23 05:55:00,24.5,9.4,30.34,WNW,288,0.0,0.0,52,0.00,,,0.00,WeatherDisplay:10.37,2013-01-23 10:55:00,
2013-01-23 06:00:00,24.4,9.7,30.34,WNW,288,0.0,0.0,53,0.00,,,0.00,WeatherDisplay:10.37,2013-01-23 11:00:00,
2013-01-23 06:05:00,24.3,9.6,30.34,WNW,288,0.0,0.0,53,0.00,,,0.00,WeatherDisplay:10.37,2013-01-23 11:05:00,
2013-01-23 06:10:00,24.1,9.8,30.34,WNW,288,0.0,0.0,54,0.00,,,0.00,WeatherDisplay:10.37,2013-01-23 11:10:00,
2013-01-23 06:15:00,24.0,8.9,30.34,WNW,288,0.0,0.0,52,0.00,,,0.00,WeatherDisplay:10.37,2013-01-23 11:15:00,
2013-01-23 06:20:00,24.2,8.7,30.34,WNW,288,0.0,0.0,51,0.00,,,0.00,WeatherDisplay:10.37,2013-01-23 11:20:00,
2013-01-23 06:25:00,24.1,9.4,30.34,WNW,288,0.0,0.0,53,0.00,,,0.00,WeatherDisplay:10.37,2013-01-23 11:25:00,
2013-01-23 06:30:00,23.9,9.2,30.34,WNW,288,0.0,0.0,53,0.00,,,0.00,WeatherDisplay:10.37,2013-01-23 11:30:00,
2013-01-23 06:35:00,23.6,8.9,30.34,WNW,287,0.0,0.0,53,0.00,,,0.00,WeatherDisplay:10.37,2013-01-23 11:35:00,
2013-01-23 06:40:00,23.4,8.8,30.34,WNW,288,0.0,0.0,53,0.00,,,0.00,WeatherDisplay:10.37,2013-01-23 11:40:00,
2013-01-23 06:45:00,23.1,10.1,30.35,WNW,288,0.0,0.0,57,0.00,,,0.00,WeatherDisplay:10.37,2013-01-23 11:45:00,
2013-01-23 06:50:00,22.9,9.9,30.35,WNW,287,0.0,0.0,57,0.00,,,0.00,WeatherDisplay:10.37,2013-01-23 11:50:00,
2013-01-23 06:55:00,22.7,9.7,30.35,WNW,287,0.0,0.0,57,0.00,,,0.00,WeatherDisplay:10.37,2013-01-23 11:55:00,
2013-01-23 07:00:00,22.7,9.7,30.34,WNW,288,0.0,0.0,57,0.00,,,0.00,WeatherDisplay:10.37,2013-01-23 12:00:00,
2013-01-23 07:05:00,22.8,10.2,30.35,WNW,287,0.0,0.0,58,0.00,CLR,,0.00,WeatherDisplay:10.37,2013-01-23 12:05:00,
2013-01-23 07:10:00,23.0,10.0,30.36,WNW,288,0.0,0.0,57,0.00,CLR,,0.00,WeatherDisplay:10.37,2013-01-23 12:10:00,
2013-01-23 07:15:00,23.2,10.6,30.36,WNW,288,0.0,0.0,58,0.00,CLR,,0.00,WeatherDisplay:10.37,2013-01-23 12:15:00,
2013-01-23 07:20:00,23.4,11.2,30.36,WNW,288,0.0,0.0,59,0.00,CLR,,0.00,WeatherDisplay:10.37,2013-01-23 12:20:00,
2013-01-23 07:25:00,23.5,11.6,30.37,WNW,287,0.0,0.0,60,0.00,CLR,,0.00,WeatherDisplay:10.37,2013-01-23 12:25:00,
2013-01-23 07:30:00,23.6,10.6,30.37,WNW,288,0.0,0.0,57,0.00,CLR,,0.00,WeatherDisplay:10.37,2013-01-23 12:30:00,
2013-01-23 07:35:00,23.8,10.8,30.37,WNW,288,0.0,0.0,57,0.00,CLR,,0.00,WeatherDisplay:10.37,2013-01-23 12:35:00,
2013-01-23 07:40:00,23.9,10.9,30.36,WNW,287,0.0,0.0,57,0.00,CLR,,0.00,WeatherDisplay:10.37,2013-01-23 12:40:00,
2013-01-23 07:45:00,23.9,10.5,30.36,WNW,288,0.0,0.0,56,0.00,CLR,,0.00,WeatherDisplay:10.37,2013-01-23 12:45:00,
2013-01-23 07:50:00,24.0,10.2,30.36,WNW,302,0.0,0.0,55,0.00,CLR,,0.00,WeatherDisplay:10.37,2013-01-23 12:50:00,
2013-01-23 07:55:00,24.2,10.3,30.36,WNW,302,0.0,0.0,55,0.00,CLR,,0.00,WeatherDisplay:10.37,2013-01-23 12:55:00,
2013-01-23 08:00:00,24.4,10.5,30.36,WNW,302,0.0,0.0,55,0.00,CLR,,0.00,WeatherDisplay:10.37,2013-01-23 13:00:00,
2013-01-23 08:05:00,24.5,10.2,30.36,WNW,302,0.3,1.1,54,0.00,CLR,,0.00,WeatherDisplay:10.37,2013-01-23 13:05:00,
2013-01-23 08:10:00,24.8,10.5,30.36,WNW,302,0.0,0.0,54,0.00,CLR,,0.00,WeatherDisplay:10.37,2013-01-23 13:10:00,
2013-01-23 08:15:00,24.9,10.2,30.36,WNW,302,0.0,0.0,53,0.00,CLR,,0.00,WeatherDisplay:10.37,2013-01-23 13:15:00,
2013-01-23 08:20:00,25.2,10.9,30.36,WNW,302,0.0,0.0,54,0.00,CLR,,0.00,WeatherDisplay:10.37,2013-01-23 13:20:00,
2013-01-23 08:25:00,25.3,11.4,30.36,WNW,299,1.2,4.0,55,0.00,CLR,,0.00,WeatherDisplay:10.37,2013-01-23 13:25:00,
2013-01-23 08:30:00,25.6,11.7,30.36,NW,321,0.5,3.0,55,0.00,CLR,,0.00,WeatherDisplay:10.37,2013-01-23 13:30:00,
2013-01-23 08:35:00,25.8,11.0,30.36,WNW,293,4.1,5.8,53,0.00,CLR,,0.00,WeatherDisplay:10.37,2013-01-23 13:35:00,
2013-01-23 08:40:00,26.1,11.7,30.36,WNW,296,1.6,4.0,54,0.00,CLR,,0.00,WeatherDisplay:10.37,2013-01-23 13:40:00,
2013-01-23 08:45:00,26.3,11.5,30.36,NW,307,1.5,3.5,53,0.00,CLR,,0.00,WeatherDisplay:10.37,2013-01-23 13:45:00,
2013-01-23 08:50:00,26.6,11.7,30.36,NW,306,3.1,3.5,53,0.00,CLR,,0.00,WeatherDisplay:10.37,2013-01-23 13:50:00,
2013-01-23 08:55:00,26.9,12.0,30.37,WNW,293,2.3,5.8,53,0.00,CLR,,0.00,WeatherDisplay:10.37,2013-01-23 13:55:00,
2013-01-23 09:00:00,27.1,12.2,30.37,WNW,301,0.5,5.0,53,0.00,CLR,,0.00,WeatherDisplay:10.37,2013-01-23 14:00:00,
2013-01-23 09:05:00,27.4,12.5,30.37,WNW,295,0.5,4.0,53,0.00,CLR,,0.00,WeatherDisplay:10.37,2013-01-23 14:05:00,
2013-01-23 09:10:00,27.7,12.3,30.37,WNW,300,0.8,5.8,52,0.00,CLR,,0.00,WeatherDisplay:10.37,2013-01-23 14:10:00,
2013-01-23 09:15:00,27.9,12.5,30.37,WNW,291,3.2,4.6,52,0.00,CLR,,0.00,WeatherDisplay:10.37,2013-01-23 14:15:00,
2013-01-23 09:20:00,28.0,12.6,30.37,NW,304,0.1,0.0,52,0.00,CLR,,0.00,WeatherDisplay:10.37,2013-01-23 14:20:00,
2013-01-23 09:25:00,28.2,13.2,30.37,NW,308,4.2,8.1,53,0.00,CLR,,0.00,WeatherDisplay:10.37,2013-01-23 14:25:00,
2013-01-23 09:30:00,28.5,13.1,30.37,NW,314,0.4,3.5,52,0.00,CLR,,0.00,WeatherDisplay:10.37,2013-01-23 14:30:00,
2013-01-23 09:35:00,28.7,12.8,30.38,WNW,296,2.0,10.4,51,0.00,CLR,,0.00,WeatherDisplay:10.37,2013-01-23 14:35:00,
2013-01-23 09:40:00,29.0,13.6,30.38,NW,306,5.1,9.2,52,0.00,CLR,,0.00,WeatherDisplay:10.37,2013-01-23 14:40:00,
2013-01-23 09:45:00,29.1,13.6,30.38,NW,320,4.0,10.4,52,0.00,CLR,,0.00,WeatherDisplay:10.37,2013-01-23 14:45:00,
2013-01-23 09:50:00,29.3,13.4,30.38,NW,306,0.4,5.0,51,0.00,CLR,,0.00,WeatherDisplay:10.37,2013-01-23 14:50:00,
2013-01-23 09:55:00,29.6,13.7,30.38,NW,325,1.1,4.0,51,0.00,CLR,,0.00,WeatherDisplay:10.37,2013-01-23 14:55:00,
2013-01-23 10:00:00,30.0,14.5,30.38,NW,308,0.5,4.0,52,0.00,CLR,,0.00,WeatherDisplay:10.37,2013-01-23 15:00:00,
2013-01-23 10:05:00,30.3,14.8,30.38,NW,310,1.7,4.0,52,0.00,CLR,,0.00,WeatherDisplay:10.37,2013-01-23 15:05:00,
2013-01-23 10:10:00,30.6,14.6,30.39,NW,310,3.7,3.7,51,0.00,CLR,,0.00,WeatherDisplay:10.37,2013-01-23 15:10:00,
2013-01-23 10:15:00,30.7,13.8,30.39,WNW,294,2.5,3.5,49,0.00,CLR,,0.00,WeatherDisplay:10.37,2013-01-23 15:15:00,
2013-01-23 10:20:00,30.7,14.2,30.39,NW,309,1.5,5.8,50,0.00,CLR,,0.00,WeatherDisplay:10.37,2013-01-23 15:20:00,
2013-01-23 10:25:00,30.8,14.8,30.39,WNW,301,2.4,5.8,51,0.00,CLR,,0.00,WeatherDisplay:10.37,2013-01-23 15:25:00,
2013-01-23 10:30:00,31.1,14.6,30.38,WNW,296,1.4,3.5,50,0.00,CLR,,0.00,WeatherDisplay:10.37,2013-01-23 15:30:00,
2013-01-23 10:35:00,31.3,14.3,30.39,NW,309,0.8,4.6,49,0.00,CLR,,0.00,WeatherDisplay:10.37,2013-01-23 15:35:00,
2013-01-23 10:40:00,31.5,15.0,30.39,NW,312,1.6,3.5,50,0.00,CLR,,0.00,WeatherDisplay:10.37,2013-01-23 15:40:00,
2013-01-23 10:46:00,32.1,17.3,30.39,NW,304,2.1,3.5,54,0.00,CLR,,0.00,WeatherDisplay:10.37,2013-01-23 15:46:00,
2013-01-23 10:50:00,32.5,15.4,30.39,NW,309,4.0,4.6,49,0.00,CLR,,0.00,WeatherDisplay:10.37,2013-01-23 15:50:00,
2013-01-23 10:56:00,32.5,15.4,30.39,WNW,298,4.9,6.9,49,0.00,CLR,,0.00,WeatherDisplay:10.37,2013-01-23 15:56:00,
2013-01-23 11:01:00,32.9,16.7,30.38,NW,308,2.8,7.0,51,0.00,CLR,,0.00,WeatherDisplay:10.37,2013-01-23 16:01:00,
2013-01-23 11:06:00,32.9,16.3,30.38,WNW,296,0.5,1.1,50,0.00,CLR,,0.00,WeatherDisplay:10.37,2013-01-23 16:06:00,
2013-01-23 11:11:00,33.3,16.2,30.38,NNW,327,0.7,4.6,49,0.00,CLR,,0.00,WeatherDisplay:10.37,2013-01-23 16:11:00,
2013-01-23 11:16:00,33.6,16.5,30.38,NW,325,0.5,2.3,49,0.00,CLR,,0.00,WeatherDisplay:10.37,2013-01-23 16:16:00,
2013-01-23 11:21:00,34.1,16.4,30.38,NW,306,0.0,0.0,48,0.00,CLR,,0.00,WeatherDisplay:10.37,2013-01-23 16:21:00,
2013-01-23 11:26:00,34.4,17.2,30.37,NW,307,5.6,9.2,49,0.00,CLR,,0.00,WeatherDisplay:10.37,2013-01-23 16:26:00,
2013-01-23 11:31:00,34.1,16.4,30.37,WNW,292,0.0,0.0,48,0.00,CLR,,0.00,WeatherDisplay:10.37,2013-01-23 16:31:00,
2013-01-23 11:36:00,34.1,16.9,30.36,NW,326,4.1,4.6,49,0.00,CLR,,0.00,WeatherDisplay:10.37,2013-01-23 16:36:00,
2013-01-23 11:41:00,34.4,16.7,30.36,NW,311,0.9,4.6,48,0.00,CLR,,0.00,WeatherDisplay:10.37,2013-01-23 16:41:00,
2013-01-23 11:46:00,34.4,16.2,30.36,WNW,283,0.6,3.5,47,0.00,CLR,,0.00,WeatherDisplay:10.37,2013-01-23 16:46:00,
2013-01-23 11:51:00,34.7,17.5,30.36,WNW,297,0.0,2.3,49,0.00,CLR,,0.00,WeatherDisplay:10.37,2013-01-23 16:51:00,
2013-01-23 11:56:00,35.2,17.4,30.35,NNE,28,0.5,2.3,48,0.00,CLR,,0.00,WeatherDisplay:10.37,2013-01-23 16:56:00,
2013-01-23 12:01:00,35.4,17.6,30.35,West,267,2.9,5.8,48,0.00,CLR,,0.00,WeatherDisplay:10.37,2013-01-23 17:01:00,
2013-01-23 12:06:00,35.6,17.3,30.35,West,277,5.9,9.2,47,0.00,CLR,,0.00,WeatherDisplay:10.37,2013-01-23 17:06:00,
2013-01-23 12:11:00,35.8,17.5,30.34,NW,310,3.3,4.6,47,0.00,CLR,,0.00,WeatherDisplay:10.37,2013-01-23 17:11:00,
2013-01-23 12:16:00,35.8,17.5,30.34,WSW,258,5.2,8.1,47,0.00,CLR,,0.00,WeatherDisplay:10.37,2013-01-23 17:16:00,
2013-01-23 12:21:00,35.9,17.6,30.34,West,260,0.0,0.0,47,0.00,CLR,,0.00,WeatherDisplay:10.37,2013-01-23 17:21:00,
2013-01-23 12:26:00,36.5,18.2,30.33,West,277,5.8,6.9,47,0.00,CLR,,0.00,WeatherDisplay:10.37,2013-01-23 17:26:00,
2013-01-23 12:31:00,36.4,18.1,30.32,NW,320,1.0,4.6,47,0.00,CLR,,0.00,WeatherDisplay:10.37,2013-01-23 17:31:00,
2013-01-23 12:36:00,36.4,17.6,30.32,WNW,298,4.3,5.8,46,0.00,CLR,,0.00,WeatherDisplay:10.37,2013-01-23 17:36:00,
2013-01-23 12:41:00,36.6,17.2,30.31,WNW,297,0.2,3.5,45,0.00,CLR,,0.00,WeatherDisplay:10.37,2013-01-23 17:41:00,
2013-01-23 12:46:00,36.8,18.9,30.31,NW,319,2.9,5.0,48,0.00,CLR,,0.00,WeatherDisplay:10.37,2013-01-23 17:46:00,
2013-01-23 12:51:00,37.2,18.3,30.30,WNW,302,1.2,4.6,46,0.00,CLR,,0.00,WeatherDisplay:10.37,2013-01-23 17:51:00,
2013-01-23 12:56:00,37.4,19.5,30.30,WNW,300,2.1,3.5,48,0.00,CLR,,0.00,WeatherDisplay:10.37,2013-01-23 17:56:00,
2013-01-23 13:01:00,37.7,19.3,30.29,WNW,286,3.9,6.9,47,0.00,CLR,,0.00,WeatherDisplay:10.37,2013-01-23 18:01:00,
2013-01-23 13:06:00,38.1,19.1,30.29,West,264,4.6,6.9,46,0.00,CLR,,0.00,WeatherDisplay:10.37,2013-01-23 18:06:00,
2013-01-23 13:11:00,38.2,18.2,30.28,NW,319,2.3,4.6,44,0.00,CLR,,0.00,WeatherDisplay:10.37,2013-01-23 18:11:00,
2013-01-23 13:16:00,38.4,19.4,30.28,West,279,3.6,10.4,46,0.00,CLR,,0.00,WeatherDisplay:10.37,2013-01-23 18:16:00,
2013-01-23 13:21:00,38.9,19.9,30.28,West,277,4.8,8.1,46,0.00,CLR,,0.00,WeatherDisplay:10.37,2013-01-23 18:21:00,
2013-01-23 13:26:00,39.1,21.0,30.28,WNW,295,3.7,9.2,48,0.00,CLR,,0.00,WeatherDisplay:10.37,2013-01-23 18:26:00,
2013-01-23 13:31:00,39.3,19.7,30.27,West,275,6.5,9.2,45,0.00,CLR,,0.00,WeatherDisplay:10.37,2013-01-23 18:31:00,
2013-01-23 13:36:00,39.3,19.2,30.27,NW,305,0.0,3.5,44,0.00,CLR,,0.00,WeatherDisplay:10.37,2013-01-23 18:36:00,
2013-01-23 13:41:00,39.4,20.3,30.27,NW,306,3.0,3.5,46,0.00,CLR,,0.00,WeatherDisplay:10.37,2013-01-23 18:41:00,
2013-01-23 13:46:00,39.8,19.6,30.26,West,281,1.8,5.8,44,0.00,CLR,,0.00,WeatherDisplay:10.37,2013-01-23 18:46:00,
2013-01-23 13:51:00,40.0,20.3,30.27,WNW,300,3.1,4.6,45,0.00,CLR,,0.00,WeatherDisplay:10.37,2013-01-23 18:51:00,
2013-01-23 13:56:00,40.3,20.6,30.26,NW,306,4.3,6.9,45,0.00,CLR,,0.00,WeatherDisplay:10.37,2013-01-23 18:56:00,
2013-01-23 14:01:00,40.6,20.9,30.26,West,260,0.9,4.6,45,0.00,CLR,,0.00,WeatherDisplay:10.37,2013-01-23 19:01:00,
2013-01-23 14:06:00,41.0,20.2,30.26,WSW,250,4.2,7.0,43,0.00,CLR,,0.00,WeatherDisplay:10.37,2013-01-23 19:06:00,
2013-01-23 14:11:00,41.0,20.7,30.25,NW,320,4.3,5.8,44,0.00,CLR,,0.00,WeatherDisplay:10.37,2013-01-23 19:11:00,
2013-01-23 14:16:00,41.1,20.8,30.25,North,351,0.0,0.0,44,0.00,CLR,,0.00,WeatherDisplay:10.37,2013-01-23 19:16:00,
2013-01-23 14:21:00,41.6,20.7,30.25,NW,317,1.8,5.0,43,0.00,CLR,,0.00,WeatherDisplay:10.37,2013-01-23 19:21:00,
2013-01-23 14:26:00,41.9,21.0,30.25,NW,307,3.1,6.0,43,0.00,CLR,,0.00,WeatherDisplay:10.37,2013-01-23 19:26:00,
2013-01-23 14:31:00,41.8,20.9,30.24,NW,306,0.0,0.0,43,0.00,CLR,,0.00,WeatherDisplay:10.37,2013-01-23 19:31:00,
2013-01-23 14:36:00,41.8,20.4,30.25,NW,306,0.0,0.0,42,0.00,CLR,,0.00,WeatherDisplay:10.37,2013-01-23 19:36:00,
2013-01-23 14:41:00,42.1,20.6,30.25,NE,44,0.0,2.3,42,0.00,CLR,,0.00,WeatherDisplay:10.37,2013-01-23 19:41:00,
2013-01-23 14:46:00,42.5,21.5,30.24,ENE,63,0.0,0.0,43,0.00,CLR,,0.00,WeatherDisplay:10.37,2013-01-23 19:46:00,
2013-01-23 14:51:00,43.0,22.5,30.24,SSW,192,4.2,10.4,44,0.00,CLR,,0.00,WeatherDisplay:10.37,2013-01-23 19:51:00,
2013-01-23 14:56:00,43.3,21.7,30.24,South,174,2.4,4.6,42,0.00,CLR,,0.00,WeatherDisplay:10.37,2013-01-23 19:56:00,
2013-01-23 15:01:00,43.4,21.8,30.24,SW,221,0.0,1.1,42,0.00,CLR,,0.00,WeatherDisplay:10.37,2013-01-23 20:01:00,
2013-01-23 15:06:00,43.4,21.8,30.24,West,265,1.3,4.6,42,0.00,CLR,,0.00,WeatherDisplay:10.37,2013-01-23 20:06:00,
2013-01-23 15:11:00,43.5,21.9,30.25,SW,231,3.9,6.9,42,0.00,CLR,,0.00,WeatherDisplay:10.37,2013-01-23 20:11:00,
2013-01-23 15:16:00,43.4,21.2,30.25,SW,235,0.1,3.5,41,0.00,CLR,,0.00,WeatherDisplay:10.37,2013-01-23 20:16:00,
2013-01-23 15:21:00,43.3,21.7,30.24,SW,235,0.0,0.0,42,0.00,CLR,,0.00,WeatherDisplay:10.37,2013-01-23 20:21:00,
2013-01-23 15:26:00,43.4,21.8,30.24,SSW,204,0.0,3.5,42,0.00,CLR,,0.00,WeatherDisplay:10.37,2013-01-23 20:26:00,
2013-01-23 15:31:00,43.6,22.0,30.24,WSW,242,1.8,5.0,42,0.00,CLR,,0.00,WeatherDisplay:10.37,2013-01-23 20:31:00,
2013-01-23 15:36:00,43.7,21.5,30.24,SSW,205,4.1,6.0,41,0.00,CLR,,0.00,WeatherDisplay:10.37,2013-01-23 20:36:00,
2013-01-23 15:41:00,43.6,21.4,30.24,SSW,205,0.1,0.0,41,0.00,CLR,,0.00,WeatherDisplay:10.37,2013-01-23 20:41:00,
2013-01-23 15:47:00,43.7,22.1,30.23,SSW,209,0.0,0.0,42,0.00,CLR,,0.00,WeatherDisplay:10.37,2013-01-23 20:47:00,
2013-01-23 15:52:00,43.7,21.5,30.23,South,179,4.8,5.0,41,0.00,CLR,,0.00,WeatherDisplay:10.37,2013-01-23 20:52:00,
2013-01-23 15:57:00,43.6,21.4,30.23,SW,216,1.0,3.5,41,0.00,CLR,,0.00,WeatherDisplay:10.37,2013-01-23 20:57:00,
2013-01-23 16:02:00,43.6,21.4,30.23,South,176,0.1,1.1,41,0.00,CLR,,0.00,WeatherDisplay:10.37,2013-01-23 21:02:00,
2013-01-23 16:07:00,43.4,21.8,30.22,South,190,3.3,4.6,42,0.00,CLR,,0.00,WeatherDisplay:10.37,2013-01-23 21:07:00,
2013-01-23 16:12:00,43.4,21.8,30.22,SSW,196,0.5,2.3,42,0.00,CLR,,0.00,WeatherDisplay:10.37,2013-01-23 21:12:00,
2013-01-23 16:17:00,43.6,22.5,30.22,SSW,213,0.3,2.3,43,0.00,CLR,,0.00,WeatherDisplay:10.37,2013-01-23 21:17:00,
2013-01-23 16:22:00,43.5,21.3,30.22,SSW,205,0.8,3.5,41,0.00,CLR,,0.00,WeatherDisplay:10.37,2013-01-23 21:22:00,
2013-01-23 16:27:00,43.4,21.8,30.22,SE,146,3.5,3.5,42,0.00,CLR,,0.00,WeatherDisplay:10.37,2013-01-23 21:27:00,
2013-01-23 16:32:00,43.1,22.1,30.22,SSE,162,4.3,6.9,43,0.00,CLR,,0.00,WeatherDisplay:10.37,2013-01-23 21:32:00,
2013-01-23 16:37:00,43.0,22.5,30.21,South,173,0.0,0.0,44,0.00,CLR,,0.00,WeatherDisplay:10.37,2013-01-23 21:37:00,
2013-01-23 16:42:00,43.2,22.2,30.22,SSE,151,0.4,2.3,43,0.00,CLR,,0.00,WeatherDisplay:10.37,2013-01-23 21:42:00,
2013-01-23 16:47:00,43.1,22.1,30.22,SSE,151,0.0,0.0,43,0.00,CLR,,0.00,WeatherDisplay:10.37,2013-01-23 21:47:00,
2013-01-23 16:52:00,43.2,22.2,30.22,SSE,152,0.0,0.0,43,0.00,CLR,,0.00,WeatherDisplay:10.37,2013-01-23 21:52:00,
2013-01-23 16:57:00,43.2,22.2,30.21,SSE,152,0.0,0.0,43,0.00,CLR,,0.00,WeatherDisplay:10.37,2013-01-23 21:57:00,
2013-01-23 17:02:00,43.3,23.4,30.21,SSE,151,0.0,0.0,45,0.00,CLR,,0.00,WeatherDisplay:10.37,2013-01-23 22:02:00,
2013-01-23 17:07:00,43.5,23.0,30.21,SSE,152,0.0,0.0,44,0.00,CLR,,0.00,WeatherDisplay:10.37,2013-01-23 22:07:00,
2013-01-23 17:12:00,43.7,22.6,30.21,SSE,152,0.0,0.0,43,0.00,CLR,,0.00,WeatherDisplay:10.37,2013-01-23 22:12:00,
2013-01-23 17:17:00,43.9,23.4,30.21,SSE,151,0.0,0.0,44,0.00,CLR,,0.00,WeatherDisplay:10.37,2013-01-23 22:17:00,
2013-01-23 17:22:00,43.8,23.8,30.21,SSE,152,0.0,0.0,45,0.00,CLR,,0.00,WeatherDisplay:10.37,2013-01-23 22:22:00,
2013-01-23 17:27:00,43.6,23.1,30.21,SSE,151,0.0,0.0,44,0.00,CLR,,0.00,WeatherDisplay:10.37,2013-01-23 22:27:00,
2013-01-23 17:32:00,43.2,22.7,30.21,SSE,152,0.0,0.0,44,0.00,CLR,,0.00,WeatherDisplay:10.37,2013-01-23 22:32:00,
2013-01-23 17:37:00,42.7,23.3,30.21,SSE,151,0.0,0.0,46,0.00,CLR,,0.00,WeatherDisplay:10.37,2013-01-23 22:37:00,
2013-01-23 17:42:00,42.0,22.7,30.21,SSE,151,0.0,0.0,46,0.00,CLR,,0.00,WeatherDisplay:10.37,2013-01-23 22:42:00,
2013-01-23 17:47:00,41.4,22.7,30.21,SSE,152,0.0,0.0,47,0.00,CLR,,0.00,WeatherDisplay:10.37,2013-01-23 22:47:00,
2013-01-23 17:52:00,40.8,22.6,30.21,SSE,151,0.0,0.0,48,0.00,CLR,,0.00,WeatherDisplay:10.37,2013-01-23 22:52:00,
2013-01-23 17:57:00,40.2,23.0,30.21,SSE,152,0.0,0.0,50,0.00,CLR,,0.00,WeatherDisplay:10.37,2013-01-23 22:57:00,
2013-01-23 18:02:00,39.7,23.0,30.21,SSE,152,0.0,0.0,51,0.00,,,0.00,WeatherDisplay:10.37,2013-01-23 23:02:00,
2013-01-23 18:07:00,39.2,22.6,30.20,SSE,152,0.0,0.0,51,0.00,,,0.00,WeatherDisplay:10.37,2013-01-23 23:07:00,
2013-01-23 18:12:00,38.2,23.0,30.20,SSE,151,0.0,0.0,54,0.00,,,0.00,WeatherDisplay:10.37,2013-01-23 23:12:00,
2013-01-23 18:17:00,37.5,23.2,30.21,SSE,152,0.0,0.0,56,0.00,,,0.00,WeatherDisplay:10.37,2013-01-23 23:17:00,
2013-01-23 18:22:00,36.9,23.1,30.20,SSE,151,0.0,0.0,57,0.00,,,0.00,WeatherDisplay:10.37,2013-01-23 23:22:00,
2013-01-23 18:27:00,36.2,23.2,30.20,SSE,151,0.0,0.0,59,0.00,,,0.00,WeatherDisplay:10.37,2013-01-23 23:27:00,
2013-01-23 18:32:00,35.7,22.8,30.20,SSE,152,0.0,0.0,59,0.00,,,0.00,WeatherDisplay:10.37,2013-01-23 23:32:00,
2013-01-23 18:37:00,35.2,22.7,30.20,SSE,152,0.0,0.0,60,0.00,,,0.00,WeatherDisplay:10.37,2013-01-23 23:37:00,
2013-01-23 18:42:00,34.8,23.1,30.20,SSE,152,0.0,0.0,62,0.00,,,0.00,WeatherDisplay:10.37,2013-01-23 23:42:00,
2013-01-23 18:47:00,34.4,22.7,30.20,SSE,152,0.0,0.0,62,0.00,,,0.00,WeatherDisplay:10.37,2013-01-23 23:47:00,
2013-01-23 18:52:00,33.7,22.8,30.20,SSE,152,0.0,0.0,64,0.00,,,0.00,WeatherDisplay:10.37,2013-01-23 23:52:00,
2013-01-23 18:57:00,33.3,22.8,30.20,SSE,151,0.0,0.0,65,0.00,,,0.00,WeatherDisplay:10.37,2013-01-23 23:57:00,
2013-01-23 19:02:00,33.0,23.2,30.20,SSE,152,0.0,0.0,67,0.00,,,0.00,WeatherDisplay:10.37,2013-01-24 00:02:00,
2013-01-23 19:07:00,32.7,22.9,30.19,SSE,151,0.0,0.0,67,0.00,,,0.00,WeatherDisplay:10.37,2013-01-24 00:07:00,
2013-01-23 19:12:00,32.4,22.7,30.19,SSE,152,0.0,0.0,67,0.00,,,0.00,WeatherDisplay:10.37,2013-01-24 00:12:00,
2013-01-23 19:17:00,32.1,22.4,30.19,SSE,151,0.0,0.0,67,0.00,,,0.00,WeatherDisplay:10.37,2013-01-24 00:17:00,
2013-01-23 19:22:00,31.7,22.3,30.20,SSE,151,0.0,0.0,68,0.00,,,0.00,WeatherDisplay:10.37,2013-01-24 00:22:00,
2013-01-23 19:27:00,31.3,22.3,30.20,SSE,152,0.0,0.0,69,0.00,,,0.00,WeatherDisplay:10.37,2013-01-24 00:27:00,
2013-01-23 19:32:00,31.0,22.0,30.19,SSE,151,0.0,0.0,69,0.00,,,0.00,WeatherDisplay:10.37,2013-01-24 00:32:00,
2013-01-23 19:37:00,30.8,22.2,30.19,SSE,151,0.0,0.0,70,0.00,,,0.00,WeatherDisplay:10.37,2013-01-24 00:37:00,
2013-01-23 19:42:00,30.7,21.7,30.18,SSE,152,0.0,0.0,69,0.00,,,0.00,WeatherDisplay:10.37,2013-01-24 00:42:00,
2013-01-23 19:47:00,30.6,22.0,30.18,SSE,151,0.0,0.0,70,0.00,,,0.00,WeatherDisplay:10.37,2013-01-24 00:47:00,
2013-01-23 19:52:00,30.4,22.1,30.18,SSE,151,0.0,0.0,71,0.00,,,0.00,WeatherDisplay:10.37,2013-01-24 00:52:00,
2013-01-23 19:57:00,30.0,22.1,30.18,SSE,152,0.0,0.0,72,0.00,,,0.00,WeatherDisplay:10.37,2013-01-24 00:57:00,
2013-01-23 20:02:00,29.7,22.4,30.18,SSE,151,0.0,0.0,74,0.00,,,0.00,WeatherDisplay:10.37,2013-01-24 01:02:00,
2013-01-23 20:07:00,29.4,22.1,30.18,SSE,151,0.0,0.0,74,0.00,,,0.00,WeatherDisplay:10.37,2013-01-24 01:07:00,
2013-01-23 20:12:00,29.1,22.2,30.17,SSE,152,0.0,0.0,75,0.00,,,0.00,WeatherDisplay:10.37,2013-01-24 01:12:00,
2013-01-23 20:17:00,28.8,21.9,30.18,SSE,151,0.0,0.0,75,0.00,,,0.00,WeatherDisplay:10.37,2013-01-24 01:17:00,
2013-01-23 20:22:00,28.5,21.9,30.18,SSE,151,0.0,0.0,76,0.00,,,0.00,WeatherDisplay:10.37,2013-01-24 01:22:00,
2013-01-23 20:27:00,28.3,22.0,30.18,SSE,151,0.0,0.0,77,0.00,,,0.00,WeatherDisplay:10.37,2013-01-24 01:27:00,
2013-01-23 20:32:00,28.2,21.9,30.18,SSE,151,0.0,0.0,77,0.00,,,0.00,WeatherDisplay:10.37,2013-01-24 01:32:00,
2013-01-23 20:37:00,28.2,21.9,30.18,SSE,152,0.0,0.0,77,0.00,,,0.00,WeatherDisplay:10.37,2013-01-24 01:37:00,
2013-01-23 20:42:00,28.0,21.7,30.18,SSE,152,0.0,0.0,77,0.00,,,0.00,WeatherDisplay:10.37,2013-01-24 01:42:00,
2013-01-23 20:47:00,27.8,21.8,30.18,SSE,151,0.0,0.0,78,0.00,,,0.00,WeatherDisplay:10.37,2013-01-24 01:47:00,
2013-01-23 20:52:00,27.8,22.1,30.18,SSE,151,0.0,0.0,79,0.00,,,0.00,WeatherDisplay:10.37,2013-01-24 01:52:00,
2013-01-23 20:57:00,27.8,21.8,30.18,SSE,152,0.0,0.0,78,0.00,,,0.00,WeatherDisplay:10.37,2013-01-24 01:57:00,
2013-01-23 21:02:00,27.8,21.8,30.18,SSE,151,0.0,0.0,78,0.00,,,0.00,WeatherDisplay:10.37,2013-01-24 02:02:00,
2013-01-23 21:07:00,27.8,21.8,30.17,SSE,152,0.0,0.0,78,0.00,,,0.00,WeatherDisplay:10.37,2013-01-24 02:07:00,
2013-01-23 21:12:00,27.7,22.0,30.17,SSE,151,0.0,0.0,79,0.00,,,0.00,WeatherDisplay:10.37,2013-01-24 02:12:00,
2013-01-23 21:18:00,27.6,21.9,30.17,SSE,151,0.0,0.0,79,0.00,,,0.00,WeatherDisplay:10.37,2013-01-24 02:18:00,
2013-01-23 21:23:00,27.4,21.7,30.17,SSE,152,0.0,0.0,79,0.00,,,0.00,WeatherDisplay:10.37,2013-01-24 02:23:00,
2013-01-23 21:28:00,27.2,21.8,30.17,SSE,152,0.0,0.0,80,0.00,,,0.00,WeatherDisplay:10.37,2013-01-24 02:28:00,
2013-01-23 21:33:00,26.8,21.5,30.17,SSE,151,0.0,0.0,80,0.00,,,0.00,WeatherDisplay:10.37,2013-01-24 02:33:00,
2013-01-23 21:38:00,26.5,21.5,30.17,SSE,152,0.0,0.0,81,0.00,,,0.00,WeatherDisplay:10.37,2013-01-24 02:38:00,
2013-01-23 21:43:00,26.3,21.3,30.17,SSE,151,0.0,0.0,81,0.00,,,0.00,WeatherDisplay:10.37,2013-01-24 02:43:00,
2013-01-23 21:48:00,26.6,21.6,30.17,SSE,151,0.0,0.0,81,0.00,,,0.00,WeatherDisplay:10.37,2013-01-24 02:48:00,
2013-01-23 21:53:00,27.0,21.7,30.17,SSE,152,0.0,0.0,80,0.00,,,0.00,WeatherDisplay:10.37,2013-01-24 02:53:00,
2013-01-23 21:58:00,27.2,21.8,30.17,SSE,152,0.0,0.0,80,0.00,,,0.00,WeatherDisplay:10.37,2013-01-24 02:58:00,
2013-01-23 22:03:00,27.3,21.9,30.16,SSE,151,0.0,0.0,80,0.00,,,0.00,WeatherDisplay:10.37,2013-01-24 03:03:00,
2013-01-23 22:08:00,27.4,21.7,30.16,SSE,152,0.0,0.0,79,0.00,,,0.00,WeatherDisplay:10.37,2013-01-24 03:08:00,
2013-01-23 22:13:00,27.7,22.0,30.16,SSE,152,0.0,0.0,79,0.00,,,0.00,WeatherDisplay:10.37,2013-01-24 03:13:00,
2013-01-23 22:18:00,27.9,22.2,30.15,SSE,151,0.0,0.0,79,0.00,,,0.00,WeatherDisplay:10.37,2013-01-24 03:18:00,
2013-01-23 22:23:00,27.9,21.9,30.15,SSE,152,0.0,0.0,78,0.00,,,0.00,WeatherDisplay:10.37,2013-01-24 03:23:00,
2013-01-23 22:28:00,27.8,21.8,30.15,SSE,152,0.0,0.0,78,0.00,,,0.00,WeatherDisplay:10.37,2013-01-24 03:28:00,
2013-01-23 22:33:00,27.7,21.7,30.15,SSE,151,0.0,0.0,78,0.00,,,0.00,WeatherDisplay:10.37,2013-01-24 03:33:00,
2013-01-23 22:38:00,27.6,21.9,30.15,SSE,152,0.0,0.0,79,0.00,,,0.00,WeatherDisplay:10.37,2013-01-24 03:38:00,
2013-01-23 22:43:00,27.5,22.1,30.15,SSE,151,0.0,0.0,80,0.00,,,0.00,WeatherDisplay:10.37,2013-01-24 03:43:00,
2013-01-23 22:48:00,27.8,22.1,30.15,SSE,152,0.0,0.0,79,0.00,,,0.00,WeatherDisplay:10.37,2013-01-24 03:48:00,
2013-01-23 22:53:00,28.0,22.0,30.15,SSE,152,0.0,0.0,78,0.00,,,0.00,WeatherDisplay:10.37,2013-01-24 03:53:00,
2013-01-23 22:58:00,28.1,22.1,30.15,SSE,152,0.0,0.0,78,0.00,,,0.00,WeatherDisplay:10.37,2013-01-24 03:58:00,
2013-01-23 23:03:00,28.5,22.5,30.14,SSE,152,0.0,0.0,78,0.00,,,0.00,WeatherDisplay:10.37,2013-01-24 04:03:00,
2013-01-23 23:08:00,29.2,22.6,30.14,SSE,151,0.0,0.0,76,0.00,,,0.00,WeatherDisplay:10.37,2013-01-24 04:08:00,
2013-01-23 23:13:00,30.0,23.0,30.14,SSE,152,0.0,0.0,75,0.00,,,0.00,WeatherDisplay:10.37,2013-01-24 04:13:00,
2013-01-23 23:18:00,30.4,22.8,30.14,SSE,152,0.0,0.0,73,0.00,,,0.00,WeatherDisplay:10.37,2013-01-24 04:18:00,
2013-01-23 23:23:00,30.6,23.0,30.13,SSE,152,0.0,0.0,73,0.00,,,0.00,WeatherDisplay:10.37,2013-01-24 04:23:00,
2013-01-23 23:28:00,30.8,22.8,30.13,SSE,152,0.0,0.0,72,0.00,,,0.00,WeatherDisplay:10.37,2013-01-24 04:28:00,
2013-01-23 23:33:00,31.0,22.7,30.12,SSE,152,0.0,1.1,71,0.00,,,0.00,WeatherDisplay:10.37,2013-01-24 04:33:00,
2013-01-23 23:38:00,31.0,22.7,30.12,SSE,152,0.0,0.0,71,0.00,,,0.00,WeatherDisplay:10.37,2013-01-24 04:38:00,
2013-01-23 23:43:00,30.5,22.5,30.13,SSE,151,0.0,0.0,72,0.00,,,0.00,WeatherDisplay:10.37,2013-01-24 04:43:00,
2013-01-23 23:48:00,29.8,22.2,30.13,SSE,152,0.0,0.0,73,0.00,,,0.00,WeatherDisplay:10.37,2013-01-24 04:48:00,
2013-01-23 23:53:00,29.0,22.1,30.13,SSE,152,0.0,0.0,75,0.00,,,0.00,WeatherDisplay:10.37,2013-01-24 04:53:00,
2013-01-23 23:58:00,28.7,22.1,30.12,SSE,152,0.0,0.0,76,0.00,,,0.00,WeatherDisplay:10.37,2013-01-24 04:58:00,